Time;durP1;ratioP1;P1;durP2;ratioP2;P2;SDS_P1;SDS_P2;PMS_P1;PMS_P2;Temp;Humidity;BMP_temperature;BMP_pressure;BME280_temperature;BME280_humidity;BME280_pressure;Samples;Min_cycle;Max_cycle;Signal;HPM_P1;HPM_P2
2021/08/15 00:01:24;;;;;;;15.23;7.18;;;20.20;99.90;;;;;;5055882;28;20028;-78
2021/08/15 00:03:50;;;;;;;16.67;7.18;;;20.20;99.90;;;;;;5055896;28;20064;-78
2021/08/15 00:06:17;;;;;;;15.73;7.18;;;20.00;99.90;;;;;;5055808;28;20386;-80
2021/08/15 00:08:48;;;;;;;16.40;7.40;;;19.30;99.90;;;;;;5055785;28;20021;-79
2021/08/15 00:11:13;;;;;;;18.35;7.50;;;19.30;99.90;;;;;;5056494;28;20021;-78
2021/08/15 00:13:39;;;;;;;14.38;7.45;;;19.30;99.90;;;;;;5055764;28;20013;-77
2021/08/15 00:16:05;;;;;;;;;;;19.00;99.90;;;;;;5056180;28;20102;-77
2021/08/15 00:18:31;;;;;;;15.38;7.10;;;18.80;99.90;;;;;;5055493;28;19955;-79
2021/08/15 00:20:57;;;;;;;14.65;6.97;;;18.80;99.90;;;;;;5055227;28;20481;-79
2021/08/15 00:23:22;;;;;;;13.82;7.47;;;19.10;99.90;;;;;;5037510;28;20029;-78
2021/08/15 00:25:48;;;;;;;;;;;19.20;99.90;;;;;;5055710;28;20079;-79
2021/08/15 00:28:14;;;;;;;13.35;7.45;;;19.20;99.90;;;;;;5037512;28;19905;-78
2021/08/15 00:30:39;;;;;;;14.38;6.93;;;19.10;99.90;;;;;;5055296;28;20045;-79
2021/08/15 00:33:05;;;;;;;;;;;19.20;99.90;;;;;;5056004;28;20025;-78
2021/08/15 00:35:31;;;;;;;11.63;6.72;;;19.40;99.90;;;;;;5037340;28;20031;-78
2021/08/15 00:37:56;;;;;;;;;;;19.50;99.90;;;;;;5056074;28;20436;-79
2021/08/15 00:40:22;;;;;;;12.52;6.78;;;19.50;99.90;;;;;;5037328;28;19905;-78
2021/08/15 00:42:48;;;;;;;16.80;7.45;;;19.40;99.90;;;;;;5037175;28;20084;-78
2021/08/15 00:45:13;;;;;;;;;;;19.40;99.90;;;;;;5055129;28;20047;-78
2021/08/15 00:47:39;;;;;;;16.05;7.03;;;19.40;99.90;;;;;;5055136;28;19958;-78
2021/08/15 00:50:06;;;;;;;14.70;7.28;;;19.30;99.90;;;;;;5037166;28;20052;-79
2021/08/15 00:52:31;;;;;;;13.85;7.82;;;18.80;99.90;;;;;;5054996;28;20040;-79
2021/08/15 00:55:00;;;;;;;17.73;8.45;;;18.40;99.90;;;;;;5055018;28;20025;-77
2021/08/15 00:57:29;;;;;;;14.88;7.75;;;18.20;99.90;;;;;;5036988;28;20021;-78
2021/08/15 00:59:58;;;;;;;13.85;7.82;;;17.90;99.90;;;;;;5054696;28;20493;-77
2021/08/15 01:02:24;;;;;;;16.10;7.93;;;17.80;99.90;;;;;;5054687;28;20017;-77
2021/08/15 01:04:51;;;;;;;15.77;8.18;;;18.00;99.90;;;;;;5036998;28;20021;-78
2021/08/15 01:07:17;;;;;;;16.73;7.75;;;18.20;99.90;;;;;;5054715;28;20053;-78
2021/08/15 01:09:43;;;;;;;13.35;7.10;;;18.10;99.90;;;;;;5054909;28;20021;-78
2021/08/15 01:12:09;;;;;;;13.77;7.47;;;18.10;99.90;;;;;;5054426;28;20486;-79
2021/08/15 01:14:34;;;;;;;;;;;18.50;99.90;;;;;;5055013;28;20025;-78
2021/08/15 01:17:00;;;;;;;15.15;6.95;;;18.50;99.90;;;;;;5054656;28;19904;-78
2021/08/15 01:19:29;;;;;;;;;;;18.50;99.90;;;;;;5054882;28;20021;-79
2021/08/15 01:21:56;;;;;;;11.60;6.32;;;18.50;99.90;;;;;;5054391;28;19934;-79
2021/08/15 01:24:21;;;;;;;12.82;6.85;;;18.60;99.90;;;;;;5054353;28;20028;-78
2021/08/15 01:26:48;;;;;;;13.73;7.03;;;18.70;99.90;;;;;;5054200;28;20047;-78
2021/08/15 01:29:14;;;;;;;13.77;6.90;;;18.70;99.90;;;;;;5054178;28;20105;-79
2021/08/15 01:31:39;;;;;;;13.23;7.35;;;18.50;99.90;;;;;;5054194;28;20064;-78
2021/08/15 01:34:05;;;;;;;;;;;18.10;99.90;;;;;;5054628;28;20025;-79
2021/08/15 01:36:31;;;;;;;11.38;5.75;;;17.70;99.90;;;;;;5054135;28;19912;-79
2021/08/15 01:38:56;;;;;;;;;;;17.90;99.90;;;;;;5054568;28;20029;-78
2021/08/15 01:41:22;;;;;;;10.57;5.80;;;18.10;99.90;;;;;;5054527;28;19904;-78
2021/08/15 01:43:55;;;;;;;;;;;17.90;99.90;;;;;;5054521;28;20033;-79
2021/08/15 01:46:26;;;;;;;12.27;5.93;;;17.90;99.90;;;;;;5065617;28;19923;-79
2021/08/15 01:48:53;;;;;;;13.23;6.50;;;17.80;99.90;;;;;;5074304;28;20033;-77
2021/08/15 01:51:19;;;;;;;13.77;6.28;;;17.80;99.90;;;;;;5073899;28;20059;-79
2021/08/15 01:53:46;;;;;;;11.85;6.68;;;17.80;99.90;;;;;;5073956;28;20565;-79
2021/08/15 01:56:12;;;;;;;13.50;6.55;;;17.70;99.90;;;;;;5073755;28;20024;-77
2021/08/15 01:58:38;;;;;;;;;;;17.50;99.90;;;;;;5074215;28;20099;-78
2021/08/15 02:01:04;;;;;;;11.23;6.10;;;17.50;99.90;;;;;;5073758;28;19912;-78
2021/08/15 02:03:30;;;;;;;14.75;6.35;;;17.60;99.90;;;;;;5073812;28;20029;-78
2021/08/15 02:05:56;;;;;;;;;;;17.70;99.90;;;;;;5072790;28;20096;-77
2021/08/15 02:08:22;;;;;;;17.45;7.50;;;17.70;99.90;;;;;;5073819;28;19947;-78
2021/08/15 02:10:47;;;;;;;;;;;17.60;99.90;;;;;;5074279;28;20035;-79
2021/08/15 02:13:13;;;;;;;12.70;6.28;;;17.80;99.90;;;;;;5072427;28;20014;-78
2021/08/15 02:15:38;;;;;;;;;;;18.10;99.90;;;;;;5073957;28;20104;-78
2021/08/15 02:18:04;;;;;;;12.82;5.95;;;17.80;99.90;;;;;;5072493;28;19990;-78
2021/08/15 02:20:31;;;;;;;;;;;17.80;99.90;;;;;;5074103;28;20020;-77
2021/08/15 02:22:57;;;;;;;12.65;6.60;;;18.00;99.90;;;;;;5073560;28;20468;-79
2021/08/15 02:25:24;;;;;;;12.10;5.93;;;18.00;99.90;;;;;;5073433;28;20431;-79
2021/08/15 02:27:50;;;;;;;13.60;6.68;;;17.80;99.90;;;;;;5073328;28;20389;-77
2021/08/15 02:30:16;;;;;;;;;;;17.70;99.90;;;;;;5073833;28;20023;-78
2021/08/15 02:32:43;;;;;;;14.23;6.97;;;17.80;99.90;;;;;;5073370;28;19915;-78
2021/08/15 02:35:11;;;;;;;14.68;7.28;;;17.80;99.90;;;;;;5073286;28;20028;-78
2021/08/15 02:37:38;;;;;;;17.55;6.93;;;17.70;99.90;;;;;;5073299;28;20021;-78
2021/08/15 02:40:06;;;;;;;12.55;6.40;;;17.50;99.90;;;;;;5073338;28;20055;-78
2021/08/15 02:42:38;;;;;;;14.02;7.25;;;17.20;99.90;;;;;;5074357;28;20029;-78
2021/08/15 02:45:05;;;;;;;16.48;6.78;;;17.50;99.90;;;;;;5071258;28;20114;-79
2021/08/15 02:47:31;;;;;;;14.15;7.10;;;17.50;99.90;;;;;;5057113;28;20049;-77
2021/08/15 02:49:57;;;;;;;;;;;17.60;99.90;;;;;;5057625;28;20028;-78
2021/08/15 02:52:23;;;;;;;11.45;5.82;;;17.70;99.90;;;;;;5057110;28;19912;-78
2021/08/15 02:54:48;;;;;;;;;;;17.60;99.90;;;;;;5057519;28;20545;-78
2021/08/15 02:57:14;;;;;;;15.57;7.18;;;17.60;99.90;;;;;;5057256;28;19905;-79
2021/08/15 02:59:40;;;;;;;;;;;17.60;99.90;;;;;;5057302;28;20051;-77
2021/08/15 03:02:11;;;;;;;11.55;6.90;;;17.30;99.90;;;;;;5039021;28;19955;-78
2021/08/15 03:04:36;;;;;;;14.90;7.38;;;17.10;99.90;;;;;;5039046;28;20453;-78
2021/08/15 03:07:02;;;;;;;;;;;17.10;99.90;;;;;;5057337;28;20060;-78
2021/08/15 03:09:29;;;;;;;14.55;7.20;;;17.00;99.90;;;;;;5056826;28;19905;-78
2021/08/15 03:11:55;;;;;;;12.32;7.03;;;16.90;99.90;;;;;;5056691;28;20021;-79
2021/08/15 03:14:20;;;;;;;;;;;17.00;99.90;;;;;;5057254;28;20024;-79
2021/08/15 03:16:46;;;;;;;16.35;7.32;;;17.40;99.90;;;;;;5056713;28;20366;-79
2021/08/15 03:19:11;;;;;;;;;;;17.50;99.90;;;;;;5057270;28;20031;-78
2021/08/15 03:21:39;;;;;;;11.57;5.93;;;17.50;99.90;;;;;;5038755;28;19931;-79
2021/08/15 03:24:06;;;;;;;11.07;6.18;;;17.50;99.90;;;;;;5056484;28;20083;-78
2021/08/15 03:26:32;;;;;;;12.32;6.03;;;17.20;99.90;;;;;;5056993;28;20106;-79
2021/08/15 03:28:58;;;;;;;11.90;6.20;;;16.90;99.90;;;;;;5056504;28;20017;-77
2021/08/15 03:31:24;;;;;;;12.18;6.30;;;16.80;99.90;;;;;;5056374;28;20044;-78
2021/08/15 03:33:50;;;;;;;;;;;17.10;99.90;;;;;;5056632;28;20477;-78
2021/08/15 03:36:16;;;;;;;11.75;6.47;;;17.20;99.90;;;;;;5056344;28;19904;-77
2021/08/15 03:38:41;;;;;;;;;;;16.90;99.90;;;;;;5056617;28;20025;-78
2021/08/15 03:41:07;;;;;;;16.30;7.65;;;16.70;99.90;;;;;;5056151;28;19905;-78
2021/08/15 03:43:32;;;;;;;;;;;16.80;99.90;;;;;;5056545;28;20111;-78
2021/08/15 03:45:58;;;;;;;13.43;7.07;;;16.60;99.90;;;;;;5055843;28;19944;-78
2021/08/15 03:48:24;;;;;;;;;;;16.60;99.90;;;;;;5056516;28;20067;-79
2021/08/15 03:50:49;;;;;;;17.13;7.20;;;16.40;99.90;;;;;;5056071;28;19905;-78
2021/08/15 03:53:15;;;;;;;;;;;16.30;99.90;;;;;;5056334;28;20061;-78
2021/08/15 03:55:41;;;;;;;10.75;5.68;;;16.50;99.90;;;;;;5054782;28;20289;-79
2021/08/15 03:58:06;;;;;;;;;;;16.80;99.90;;;;;;5056529;28;20060;-79
2021/08/15 04:00:33;;;;;;;10.18;5.72;;;16.50;99.90;;;;;;5055698;28;19909;-77
2021/08/15 04:02:58;;;;;;;12.27;6.80;;;16.30;99.90;;;;;;5055676;28;20025;-78
2021/08/15 04:05:24;;;;;;;;;;;16.10;99.90;;;;;;5056019;28;20027;-78
2021/08/15 04:07:50;;;;;;;14.20;7.55;;;16.00;99.90;;;;;;5055702;28;19911;-78
2021/08/15 04:10:15;;;;;;;;;;;16.00;99.90;;;;;;5055843;28;20028;-79
2021/08/15 04:12:41;;;;;;;14.30;7.38;;;16.10;99.90;;;;;;5055526;28;19908;-78
2021/08/15 04:15:07;;;;;;;;;;;16.10;99.90;;;;;;5037855;28;20482;-78
2021/08/15 04:17:33;;;;;;;11.95;6.80;;;16.10;99.90;;;;;;5055404;28;19912;-79
2021/08/15 04:19:58;;;;;;;;;;;16.40;99.90;;;;;;5055572;28;20040;-77
2021/08/15 04:22:24;;;;;;;11.77;7.45;;;16.60;99.90;;;;;;5055355;28;20402;-76
2021/08/15 04:24:50;;;;;;;12.00;7.32;;;16.60;99.90;;;;;;5037216;28;20017;-79
2021/08/15 04:27:15;;;;;;;;;;;16.50;99.90;;;;;;5055627;28;20512;-77
2021/08/15 04:29:41;;;;;;;13.70;7.90;;;16.70;99.90;;;;;;5055284;28;19948;-78
2021/08/15 04:32:07;;;;;;;;;;;16.60;99.90;;;;;;5055547;28;20504;-78
2021/08/15 04:34:33;;;;;;;11.98;7.60;;;16.00;99.90;;;;;;5055096;28;19905;-78
2021/08/15 04:37:00;;;;;;;14.07;7.32;;;15.90;99.90;;;;;;5054876;28;20067;-78
2021/08/15 04:39:25;;;;;;;12.93;7.80;;;16.20;99.90;;;;;;5054893;28;20504;-78
2021/08/15 04:41:51;;;;;;;;;;;16.20;99.90;;;;;;5055211;28;20045;-78
2021/08/15 04:44:17;;;;;;;14.18;7.47;;;16.20;99.90;;;;;;5054750;28;19905;-78
2021/08/15 04:46:43;;;;;;;14.85;7.63;;;16.40;99.90;;;;;;5072653;28;20044;-79
2021/08/15 04:49:08;;;;;;;12.98;7.60;;;16.30;99.90;;;;;;5074785;28;20028;-78
2021/08/15 04:51:34;;;;;;;;;;;16.20;99.90;;;;;;5075142;28;20012;-78
2021/08/15 04:53:59;;;;;;;14.77;7.72;;;16.20;99.90;;;;;;5074881;28;20010;-78
2021/08/15 04:56:25;;;;;;;;;;;15.90;99.90;;;;;;5075088;28;20036;-78
2021/08/15 04:58:51;;;;;;;16.27;7.50;;;15.90;99.90;;;;;;5073263;28;19908;-77
2021/08/15 05:01:16;;;;;;;;;;;15.90;99.90;;;;;;5075018;28;20389;-77
2021/08/15 05:03:42;;;;;;;12.63;7.80;;;15.90;99.90;;;;;;5074604;28;20003;-79
2021/08/15 05:06:08;;;;;;;;;;;15.90;99.90;;;;;;5074499;28;20024;-79
2021/08/15 05:08:33;;;;;;;11.68;7.50;;;16.00;99.90;;;;;;5074616;28;20373;-79
2021/08/15 05:10:59;;;;;;;;;;;16.10;99.90;;;;;;5074855;28;20059;-78
2021/08/15 05:13:26;;;;;;;18.08;7.70;;;16.00;99.90;;;;;;5074165;28;19914;-78
2021/08/15 05:15:52;;;;;;;12.52;7.47;;;16.00;99.90;;;;;;5074592;28;20089;-78
2021/08/15 05:18:18;;;;;;;;;;;16.10;99.90;;;;;;5074715;28;20020;-78
2021/08/15 05:20:43;;;;;;;13.45;7.57;;;16.20;99.90;;;;;;5074157;28;19911;-78
2021/08/15 05:23:09;;;;;;;;;;;16.40;99.90;;;;;;5074456;28;20029;-77
2021/08/15 05:25:35;;;;;;;14.30;7.32;;;16.60;99.90;;;;;;5074196;28;19950;-78
2021/08/15 05:28:01;;;;;;;;;;;16.50;99.90;;;;;;5074385;28;20077;-77
2021/08/15 05:30:27;;;;;;;12.10;7.20;;;16.40;99.90;;;;;;5073910;28;19911;-78
2021/08/15 05:32:53;;;;;;;;;;;16.40;99.90;;;;;;5074188;28;20028;-79
2021/08/15 05:35:19;;;;;;;12.88;7.18;;;16.30;99.90;;;;;;5074287;28;19962;-79
2021/08/15 05:37:44;;;;;;;;;;;16.20;99.90;;;;;;5074562;28;20017;-78
2021/08/15 05:40:11;;;;;;;11.15;7.05;;;16.00;99.90;;;;;;5072282;28;19904;-79
2021/08/15 05:42:37;;;;;;;11.75;6.82;;;16.00;99.90;;;;;;5073603;28;20020;-79
2021/08/15 05:45:02;;;;;;;;;;;16.10;99.90;;;;;;5068108;28;20055;-78
2021/08/15 05:47:28;;;;;;;12.43;6.50;;;16.40;99.90;;;;;;5053745;28;19912;-78
2021/08/15 05:49:54;;;;;;;10.50;6.60;;;16.60;99.90;;;;;;5053879;28;20033;-77
2021/08/15 05:52:19;;;;;;;;;;;16.80;99.90;;;;;;5053854;28;20033;-78
2021/08/15 05:54:45;;;;;;;12.90;6.30;;;16.90;99.90;;;;;;5053540;28;19911;-78
2021/08/15 05:57:11;;;;;;;;;;;16.90;99.90;;;;;;5053938;28;20436;-77
2021/08/15 05:59:36;;;;;;;9.55;6.55;;;16.90;99.90;;;;;;5035615;28;19904;-78
2021/08/15 06:02:02;;;;;;;;;;;17.00;99.90;;;;;;5053840;28;20036;-78
2021/08/15 06:04:28;;;;;;;10.05;6.47;;;17.00;99.90;;;;;;5053411;28;19911;-78
2021/08/15 06:06:54;;;;;;;;;;;17.10;99.90;;;;;;5053667;28;20028;-78
2021/08/15 06:09:20;;;;;;;12.75;6.75;;;17.00;99.90;;;;;;5053317;28;20436;-78
2021/08/15 06:11:46;;;;;;;;;;;17.00;99.90;;;;;;5035847;28;20025;-78
2021/08/15 06:14:14;;;;;;;12.25;7.65;;;17.20;99.90;;;;;;5053253;28;20369;-78
2021/08/15 06:16:40;;;;;;;16.17;7.10;;;17.30;99.90;;;;;;5052762;28;20025;-79
2021/08/15 06:19:06;;;;;;;12.80;7.97;;;17.30;99.90;;;;;;5053085;28;20020;-78
2021/08/15 06:21:31;;;;;;;;;;;17.40;99.90;;;;;;5053656;28;20025;-78
2021/08/15 06:23:57;;;;;;;14.32;8.02;;;17.30;99.90;;;;;;5035106;28;20345;-77
2021/08/15 06:26:22;;;;;;;;;;;16.90;99.90;;;;;;5053590;28;20083;-79
2021/08/15 06:28:49;;;;;;;21.40;12.40;;;16.40;99.90;;;;;;5053168;28;19911;-79
2021/08/15 06:31:14;;;;;;;28.67;15.63;;;16.00;99.90;;;;;;5053382;28;20029;-78
2021/08/15 06:33:40;;;;;;;;;;;15.70;99.90;;;;;;5053634;28;20047;-77
2021/08/15 06:36:06;;;;;;;17.48;10.35;;;15.60;99.90;;;;;;5053078;28;19911;-79
2021/08/15 06:38:31;;;;;;;;;;;16.00;99.90;;;;;;5053472;28;20020;-78
2021/08/15 06:40:57;;;;;;;17.20;9.50;;;16.30;99.90;;;;;;5053413;28;19962;-78
2021/08/15 06:43:23;;;;;;;;;;;16.10;99.90;;;;;;5035448;28;20029;-78
2021/08/15 06:45:48;;;;;;;20.35;12.85;;;16.10;99.90;;;;;;5052701;28;19962;-78
2021/08/15 06:48:14;;;;;;;;;;;15.90;99.90;;;;;;5053530;28;20029;-78
2021/08/15 06:50:40;;;;;;;13.10;9.68;;;16.30;99.90;;;;;;5052934;28;19904;-79
2021/08/15 06:53:06;;;;;;;;;;;16.00;99.90;;;;;;5053058;28;20035;-78
2021/08/15 06:55:32;;;;;;;28.67;24.30;;;16.60;99.90;;;;;;5052822;28;20003;-78
2021/08/15 06:57:57;;;;;;;;;;;16.50;99.90;;;;;;5035222;28;20028;-79
2021/08/15 07:00:23;;;;;;;19.77;16.35;;;15.80;99.90;;;;;;5052875;28;19904;-78
2021/08/15 07:02:49;;;;;;;;;;;15.60;99.90;;;;;;5053186;28;20028;-78
2021/08/15 07:05:16;;;;;;;26.73;21.77;;;15.50;99.90;;;;;;5052806;28;19906;-79
2021/08/15 07:07:42;;;;;;;14.70;11.18;;;15.60;99.90;;;;;;5052745;28;20036;-78
2021/08/15 07:10:09;;;;;;;52.78;44.30;;;15.90;99.90;;;;;;5052671;28;20040;-77
2021/08/15 07:12:36;;;;;;;25.75;22.98;;;15.80;99.90;;;;;;5052710;28;20442;-78
2021/08/15 07:15:02;;;;;;;34.85;31.15;;;16.10;99.90;;;;;;5034793;28;20013;-78
2021/08/15 07:17:28;;;;;;;14.93;13.40;;;16.00;99.90;;;;;;5052616;28;20127;-78
2021/08/15 07:19:54;;;;;;;40.38;35.50;;;16.30;99.90;;;;;;5052467;28;20017;-77
2021/08/15 07:22:20;;;;;;;;;;;16.10;99.90;;;;;;5052952;28;20532;-78
2021/08/15 07:24:46;;;;;;;21.33;18.27;;;16.20;99.90;;;;;;5052829;28;19912;-78
2021/08/15 07:27:12;;;;;;;;;;;16.30;99.90;;;;;;5053166;28;20080;-78
2021/08/15 07:29:38;;;;;;;14.77;12.52;;;16.60;99.90;;;;;;5055009;28;20039;-78
2021/08/15 07:32:04;;;;;;;;;;;16.50;99.90;;;;;;5056391;28;20029;-78
2021/08/15 07:34:29;;;;;;;28.83;23.85;;;16.30;99.90;;;;;;5056269;28;19909;-77
2021/08/15 07:36:55;;;;;;;;;;;16.40;99.90;;;;;;5038587;28;20025;-77
2021/08/15 07:39:21;;;;;;;15.52;13.23;;;16.60;99.90;;;;;;5056196;28;19958;-77
2021/08/15 07:41:46;;;;;;;;;;;16.70;99.90;;;;;;5056336;28;20035;-78
2021/08/15 07:44:12;;;;;;;15.60;13.10;;;16.60;99.90;;;;;;5038159;28;19912;-77
2021/08/15 07:46:38;;;;;;;;;;;16.70;99.90;;;;;;5055697;28;20045;-78
2021/08/15 07:49:03;;;;;;;18.52;12.93;;;17.00;99.90;;;;;;5056016;28;19904;-78
2021/08/15 07:51:29;;;;;;;18.98;13.82;;;17.70;99.90;;;;;;5055655;28;20036;-78
2021/08/15 07:53:59;;;;;;;11.27;9.30;;;18.20;99.90;;;;;;5037719;28;20027;-79
2021/08/15 07:56:24;;;;;;;11.55;9.30;;;19.10;99.90;;;;;;5037623;28;20397;-77
2021/08/15 07:58:50;;;;;;;13.25;9.32;;;19.40;99.90;;;;;;5037579;28;20018;-79
2021/08/15 08:01:17;;;;;;;11.95;9.43;;;19.80;99.90;;;;;;5055475;28;20124;-78
2021/08/15 08:03:43;;;;;;;13.38;10.88;;;20.20;99.90;;;;;;5055803;28;20029;-78
2021/08/15 08:06:08;;;;;;;11.68;9.77;;;21.00;99.90;;;;;;5055387;28;20497;-78
2021/08/15 08:08:34;;;;;;;11.88;8.60;;;20.50;99.90;;;;;;5055262;28;20017;-78
2021/08/15 08:11:00;;;;;;;11.63;8.10;;;20.90;99.90;;;;;;5055248;28;20499;-79
2021/08/15 08:13:27;;;;;;;11.55;8.35;;;21.10;99.90;;;;;;5055127;28;20029;-79
2021/08/15 08:15:53;;;;;;;10.02;7.47;;;21.30;99.90;;;;;;5055182;28;20104;-79
2021/08/15 08:18:18;;;;;;;9.50;7.20;;;21.40;99.90;;;;;;5055269;28;20040;-79
2021/08/15 08:20:44;;;;;;;9.82;7.45;;;21.30;99.90;;;;;;5055173;28;20025;-78
2021/08/15 08:23:13;;;;;;;10.80;7.93;;;20.80;99.90;;;;;;5055006;28;20029;-80
2021/08/15 08:25:40;;;;;;;9.57;6.95;;;20.80;99.90;;;;;;5054927;28;20036;-79
2021/08/15 08:28:06;;;;;;;10.82;8.15;;;21.00;99.90;;;;;;5054972;28;20029;-78
2021/08/15 08:30:32;;;;;;;10.68;7.97;;;21.30;99.90;;;;;;5054910;28;20040;-79
2021/08/15 08:32:58;;;;;;;11.05;8.77;;;21.60;99.90;;;;;;5054795;28;20497;-79
2021/08/15 08:35:24;;;;;;;15.15;11.75;;;21.20;99.90;;;;;;5036955;28;20029;-79
2021/08/15 08:37:49;;;;;;;11.75;8.77;;;20.70;99.90;;;;;;5054753;28;20028;-79
2021/08/15 08:40:17;;;;;;;9.88;7.63;;;20.30;99.90;;;;;;5054122;28;20082;-80
2021/08/15 08:42:44;;;;;;;10.73;7.63;;;21.30;99.90;;;;;;5054747;28;20056;-78
2021/08/15 08:45:13;;;;;;;12.10;10.18;;;22.20;99.90;;;;;;5054231;28;20068;-79
2021/08/15 08:47:39;;;;;;;10.60;8.80;;;21.70;99.90;;;;;;5054547;28;20025;-79
2021/08/15 08:50:05;;;;;;;10.77;9.20;;;21.80;99.90;;;;;;5036574;28;20370;-79
2021/08/15 08:52:31;;;;;;;12.57;10.63;;;22.40;99.90;;;;;;5054478;28;20013;-78
2021/08/15 08:55:00;;;;;;;12.43;10.55;;;21.80;99.90;;;;;;5054629;28;20131;-80
2021/08/15 08:57:26;;;;;;;12.15;8.80;;;21.30;99.90;;;;;;5036445;28;20392;-79
2021/08/15 08:59:54;;;;;;;11.68;8.70;;;20.80;99.90;;;;;;5054607;28;20115;-80
2021/08/15 09:02:20;;;;;;;12.70;9.02;;;21.30;99.90;;;;;;5036199;28;20378;-79
2021/08/15 09:04:46;;;;;;;11.68;9.75;;;21.60;99.90;;;;;;5036383;28;20029;-79
2021/08/15 09:07:20;;;;;;;13.05;10.88;;;21.70;99.90;;;;;;5054219;28;20393;-79
2021/08/15 09:10:10;;;;;;;30.92;27.92;;;21.80;99.90;;;;;;5054116;28;20025;-79
2021/08/15 09:12:50;;;;;;;26.55;23.00;;;21.60;99.90;;;;;;5054161;28;20021;-80
2021/08/15 09:15:21;;;;;;;57.47;44.10;;;21.00;99.90;;;;;;5054181;28;20029;-78
2021/08/15 09:17:47;;;;;;;14.35;12.43;;;20.40;99.90;;;;;;5035913;28;20017;-79
2021/08/15 09:20:41;;;;;;;12.45;8.35;;;20.60;99.90;;;;;;5054002;28;20075;-80
2021/08/15 09:23:26;;;;;;;11.13;7.50;;;20.90;99.90;;;;;;5035800;28;20025;-78
2021/08/15 09:26:18;;;;;;;10.10;7.80;;;21.10;99.90;;;;;;5053803;28;20027;-78
2021/08/15 09:28:46;;;;;;;13.45;7.47;;;21.20;99.90;;;;;;5054023;28;20072;-78
2021/08/15 09:31:23;;;;;;;11.02;8.85;;;21.50;99.90;;;;;;5035819;28;20028;-78
2021/08/15 09:33:53;;;;;;;9.70;6.82;;;21.10;99.90;;;;;;5053815;28;20082;-77
2021/08/15 09:36:33;;;;;;;20.10;18.05;;;21.30;99.90;;;;;;5053684;28;20031;-79
2021/08/15 09:39:05;;;;;;;9.70;7.35;;;20.80;99.90;;;;;;5054035;28;20048;-78
2021/08/15 09:41:39;;;;;;;9.75;7.35;;;21.00;99.90;;;;;;5053619;28;20017;-80
2021/08/15 09:44:23;;;;;;;9.93;7.88;;;21.70;99.90;;;;;;5053741;28;20024;-78
2021/08/15 09:47:00;;;;;;;9.05;6.65;;;22.00;99.90;;;;;;5053801;28;20059;-79
2021/08/15 09:49:52;;;;;;;10.82;7.50;;;22.80;99.90;;;;;;5053493;28;20486;-79
2021/08/15 09:52:19;;;;;;;9.90;7.53;;;23.40;99.90;;;;;;5048838;28;20379;-79
2021/08/15 09:54:54;;;;;;;10.10;7.65;;;23.40;99.90;;;;;;5052135;28;20053;-79
2021/08/15 09:57:32;;;;;;;9.85;7.78;;;23.90;99.90;;;;;;5053568;28;20025;-79
2021/08/15 09:59:58;;;;;;;10.35;8.15;;;24.20;99.90;;;;;;5053383;28;20079;-80
2021/08/15 10:02:25;;;;;;;10.55;9.20;;;25.30;99.90;;;;;;5053310;28;20053;-79
2021/08/15 10:04:51;;;;;;;11.32;10.13;;;25.50;99.90;;;;;;5053245;28;20056;-79
2021/08/15 10:07:18;;;;;;;15.38;13.98;;;24.80;99.90;;;;;;5051961;28;20199;-79
2021/08/15 10:09:44;;;;;;;9.82;8.25;;;23.60;99.90;;;;;;5053243;28;20029;-79
2021/08/15 10:12:10;;;;;;;12.07;9.90;;;23.70;99.90;;;;;;5053375;28;20028;-79
2021/08/15 10:14:37;;;;;;;12.35;11.07;;;23.50;99.90;;;;;;5053141;28;20389;-79
2021/08/15 10:17:16;;;;;;;12.65;11.45;;;24.10;99.90;;;;;;5053197;28;20370;-79
2021/08/15 10:19:50;;;;;;;10.70;9.57;;;24.20;99.90;;;;;;5051614;28;20052;-79
2021/08/15 10:22:22;;;;;;;8.98;8.05;;;25.20;99.90;;;;;;5053250;28;20040;-80
2021/08/15 10:24:51;;;;;;;9.45;8.32;;;25.70;99.90;;;;;;5053157;28;20409;-80
2021/08/15 10:27:39;;;;;;;10.38;7.80;;;24.80;99.90;;;;;;5053019;28;20025;-79
2021/08/15 10:30:16;;;;;;;8.82;7.63;;;24.80;99.90;;;;;;5053219;28;20433;-79
2021/08/15 10:32:57;;;;;;;11.35;10.25;;;24.80;99.90;;;;;;5051699;28;20103;-80
2021/08/15 10:35:38;;;;;;;10.05;7.90;;;25.70;99.90;;;;;;5052989;28;20116;-80
2021/08/15 10:38:07;;;;;;;8.30;7.13;;;26.40;99.90;;;;;;5053147;28;20025;-80
2021/08/15 10:40:39;;;;;;;13.60;12.38;;;26.70;99.90;;;;;;5052865;28;20025;-79
2021/08/15 10:43:12;;;;;;;21.40;19.55;;;26.20;99.90;;;;;;5052919;28;20025;-80
2021/08/15 10:45:39;;;;;;;9.68;8.52;;;24.90;99.90;;;;;;5044152;28;20049;-80
2021/08/15 10:48:05;;;;;;;12.32;11.23;;;24.90;99.90;;;;;;5053204;28;20417;-78
2021/08/15 10:50:54;;;;;;;9.82;8.82;;;25.40;99.90;;;;;;5052811;28;20014;-80
2021/08/15 10:53:26;;;;;;;49.03;45.22;;;25.80;99.90;;;;;;5052714;28;20038;-80
2021/08/15 10:55:59;;;;;;;10.65;9.65;;;25.60;99.90;;;;;;5034857;28;20017;-79
2021/08/15 10:58:47;;;;;;;9.60;8.35;;;27.00;99.90;;;;;;5052753;28;20487;-80
2021/08/15 11:01:15;;;;;;;7.82;6.72;;;28.30;98.20;;;;;;5034629;28;20464;-79
2021/08/15 11:03:46;;;;;;;10.05;9.05;;;27.90;97.40;;;;;;5053803;28;20025;-80
2021/08/15 11:06:31;;;;;;;7.60;6.00;;;27.90;97.40;;;;;;5056747;28;20455;-79
2021/08/15 11:08:58;;;;;;;10.13;7.93;;;27.80;97.50;;;;;;5056504;28;20474;-79
2021/08/15 11:11:26;;;;;;;7.75;6.28;;;27.00;98.20;;;;;;5056409;28;20063;-79
2021/08/15 11:14:24;;;;;;;15.50;14.18;;;27.10;98.70;;;;;;5056302;28;20023;-78
2021/08/15 11:16:54;;;;;;;12.75;11.65;;;26.90;98.00;;;;;;5038408;28;20163;-79
2021/08/15 11:19:20;;;;;;;10.30;9.23;;;26.30;98.10;;;;;;5056279;28;20057;-80
2021/08/15 11:22:05;;;;;;;11.80;10.68;;;26.40;99.40;;;;;;5038326;28;20126;-80
2021/08/15 11:24:46;;;;;;;7.95;6.32;;;27.10;97.90;;;;;;5056119;28;20052;-80
2021/08/15 11:27:30;;;;;;;11.65;8.88;;;28.00;97.10;;;;;;5037959;28;20070;-79
2021/08/15 11:29:57;;;;;;;;;;;27.60;97.20;;;;;;5056547;28;20048;-78
2021/08/15 11:32:29;;;;;;;18.50;16.92;;;26.90;98.40;;;;;;5056476;28;20373;-80
2021/08/15 11:34:56;;;;;;;11.27;10.10;;;31.30;94.80;;;;;;5056134;28;20017;-82
2021/08/15 11:37:31;;;;;;;11.23;10.20;;;32.50;83.70;;;;;;5055877;28;20033;-80
2021/08/15 11:40:08;;;;;;;12.98;11.88;;;32.50;81.80;;;;;;5055966;28;20029;-80
2021/08/15 11:42:34;;;;;;;13.25;12.05;;;32.30;83.00;;;;;;5056134;28;20036;-80
2021/08/15 11:45:02;;;;;;;44.60;41.47;;;29.90;88.10;;;;;;5055588;28;20397;-80
2021/08/15 11:47:34;;;;;;;22.42;20.73;;;28.40;90.50;;;;;;5055760;28;20044;-79
2021/08/15 11:50:10;;;;;;;15.93;14.65;;;28.30;93.60;;;;;;5055709;28;20074;-80
2021/08/15 11:52:36;;;;;;;13.93;12.75;;;32.00;86.30;;;;;;5055741;28;20466;-80
2021/08/15 11:55:17;;;;;;;11.38;10.32;;;34.80;77.90;;;;;;5055575;28;20025;-81
2021/08/15 11:57:52;;;;;;;78.13;64.65;;;38.40;64.40;;;;;;5055627;28;20062;-81
2021/08/15 12:00:32;;;;;;;95.78;85.75;;;33.60;60.10;;;;;;5055709;28;20025;-80
2021/08/15 12:03:06;;;;;;;12.23;11.18;;;31.10;70.90;;;;;;5037247;28;20086;-80
2021/08/15 12:05:35;;;;;;;259.55;199.38;;;34.90;68.70;;;;;;5055537;28;20062;-81
2021/08/15 12:08:06;;;;;;;67.65;56.78;;;32.90;64.30;;;;;;5055332;28;20033;-81
2021/08/15 12:10:38;;;;;;;39.20;33.80;;;33.80;63.30;;;;;;5037398;28;20116;-81
2021/08/15 12:13:32;;;;;;;50.20;45.13;;;35.60;60.60;;;;;;5055610;28;20475;-81
2021/08/15 12:15:58;;;;;;;232.80;173.95;;;35.90;58.50;;;;;;5048509;28;20033;-80
2021/08/15 12:18:50;;;;;;;17.77;16.27;;;32.70;62.80;;;;;;5037262;28;20067;-81
2021/08/15 12:21:25;;;;;;;60.25;54.90;;;33.40;60.00;;;;;;5055283;28;20048;-80
2021/08/15 12:24:13;;;;;;;77.88;70.22;;;29.00;70.70;;;;;;5054923;28;20029;-80
2021/08/15 12:26:41;;;;;;;25.90;23.42;;;30.30;79.10;;;;;;5055338;28;20025;-81
2021/08/15 12:29:18;;;;;;;38.10;34.95;;;35.40;62.60;;;;;;5037097;28;20053;-80
2021/08/15 12:31:58;;;;;;;93.95;84.38;;;31.90;62.20;;;;;;5036768;28;20079;-80
2021/08/15 12:34:24;;;;;;;24.10;22.20;;;29.20;74.30;;;;;;5054906;28;20082;-81
2021/08/15 12:36:52;;;;;;;23.70;21.77;;;31.70;71.10;;;;;;5055242;28;20025;-81
2021/08/15 12:39:33;;;;;;;85.38;76.40;;;34.80;63.40;;;;;;5036916;28;20028;-81
2021/08/15 12:42:03;;;;;;;27.10;24.95;;;31.90;59.80;;;;;;5054857;28;20055;-80
2021/08/15 12:44:43;;;;;;;54.65;50.05;;;31.40;65.80;;;;;;5054513;28;20431;-80
2021/08/15 12:47:10;;;;;;;20.75;19.15;;;28.40;74.00;;;;;;5054862;28;20492;-80
2021/08/15 12:49:44;;;;;;;36.42;33.08;;;31.40;76.00;;;;;;5036733;28;20028;-81
2021/08/15 12:52:25;;;;;;;;;;;36.40;58.60;;;;;;5037066;28;20029;-81
2021/08/15 12:55:13;;;;;;;34.47;31.30;;;36.00;56.20;;;;;;5054920;28;19912;-81
2021/08/15 12:57:41;;;;;;;25.25;22.98;;;37.90;50.40;;;;;;5036500;28;20542;-81
2021/08/15 13:00:09;;;;;;;20.77;19.05;;;39.80;48.10;;;;;;5054391;28;20017;-82
2021/08/15 13:02:36;;;;;;;233.00;179.38;;;38.70;48.30;;;;;;5036304;28;20055;-81